SBOSBO KWI / OKBK
Speedbird OnlineSpeedbird Online KWI / OKBK

Kuwait International Airport
17:30 19.7°C

Location Kuwait, Kuwait
Latitude: 29.226600646972656
Longitude: 47.96889877319336
Web Airport Website | Wikipedia
Altitude 63 Meter / 206 Feet
Distance 4,637 KM / 2,881 Miles
from London.
Time Zone UTC +3 hours (Asia/Kuwait)
Codes IATA: KWI
ICAO: OKBK
Currency £1 equals KWD 0.38
Runways
RunwayLength (m)Surface
15L3500Asphalt
15R3400Concrete
33L3400Concrete
33R3500Asphalt
Radio
TypeDescriptionFrequency
APPAPP121.3
ATISATIS126.225
GNDGND121.7
TWRTWR118.3
Live ATC
METAR OKBK 311400Z 14015KT 1400 R15R/P1500U R33L/P1500U R15L/1300N R33R/1300N DU FEW040 OVC080 20/12 Q1007 NOSIG
TAF TAF OKBK 311100Z 3112/0118 15015G25KT 6000 SCT040 BKN080 TEMPO 3112/3122 2000 TSRA BLDU FEW025CB
Weather As Of 31 Jan 2023 17:31
Description Dust
Wind 28 km/h from South-East (140°)
Cloud Cover 100%
Precipitation Rain: none, Snow: none
Sunrise 06:38
Sunset 17:24
Lounges Pearl Lounge , Departure Terminal
Rotations During the last 90 days there were
49 flights from LHR
51 flights to LHR



Support Speedbird Online

© 2017-2023 Speedbird Online